AirNav   Bose ProFlight Series 2 Headset
 
 1253 users online  

32KY St Elizabeth Medical Center South Heliport
Edgewood, Kentucky, USA

GOING TO EDGEWOOD?


FAA INFORMATION EFFECTIVE 26 MARCH 2020

Location

FAA Identifier: 32KY
Lat/Long: 39-00-48.7900N 084-33-36.6600W
39-00.813167N 084-33.611000W
39.0135528,-84.5601833
(estimated)
Elevation: 873 ft. / 266 m (estimated)
Variation: 03W (1985)
Time zone: UTC -4 (UTC -5 during Standard Time)
Zip code: 41017

Heliport Operations

Heliport use: Private use. Permission required prior to landing
Activation date: 02/1979
Control tower: no
ARTCC: INDIANAPOLIS CENTER
FSS: LOUISVILLE FLIGHT SERVICE STATION
Attendance: CONTINUOUS
Wind indicator: yes
Segmented circle: yes
Beacon: white-yellow (lighted seaplane base)
PHONE REQ

Heliport Communications

WX ASOS at CVG (5 nm NW): PHONE 859-767-8210
WX ASOS at LUK (9 nm NE): 120.25 (513-321-6291)
WX AWOS-3 at I69 (17 nm E): 127.275 (513-732-6978)
WX AWOS-3PT at I67 (18 nm NW): 118.15 (513-569-4964)

Nearby radio navigation aids

VOR radial/distance  VOR name  Freq  Var
CVGr095/6.7CINCINNATI VORTAC117.3004W
FLMr336/24.8FALMOUTH VOR/DME117.0004W

 
NDB name  Hdg/Dist  Freq  Var  ID
CINCINNATI233/13.433504WLUK .-.. ..- -.-
SPORTYS261/16.524504WPWF .--. .-- ..-.
HOOK FIELD194/29.623904WHKF .... -.- ..-.
BATESVILLE127/38.125405WHLB .... .-.. -...

Heliport Services

Runway Information

Helipad H1

Dimensions: 50 x 50 ft. / 15 x 15 m
Surface: asphalt
Latitude: 39-00.813167N
Longitude: 084-33.611000W
Elevation: 873.0 ft.
Traffic pattern: leftleft

Heliport Ownership and Management from official FAA records

Ownership: Privately-owned
Owner: ST ELIZABETH MEDICAL CNTR SO
1 MEDICAL VILLAGE DR
EDGEWOOD, KY 41017
Phone 859-301-2270
Manager: MICHAEL KRAFT
1 MEDICAL VILLAGE DR
EDGEWOOD, KY 41017
Phone 859-301-2090

Additional Remarks

FOR CD CTC CINCINNATI APCH AT 859-372-6440

Instrument Procedures

There are no published instrument procedures at 32KY.

Some nearby airports with instrument procedures:

KCVG - Cincinnati/Northern Kentucky International Airport (5 nm NW)
KLUK - Cincinnati Municipal Airport-Lunken Field (9 nm NE)
I69 - Clermont County Airport (17 nm E)
I67 - Cincinnati West Airport (18 nm NW)
K62 - Gene Snyder Airport (20 nm SE)
 
Loc | Ops | Rwys | IFR | FBO | Links
Com | Nav | Svcs | Stats | Notes
Area around 32KY (St Elizabeth Medical Center South Heliport)
 
Road maps at: MapQuest Bing Google
 
Aerial photo
No photo
 
Sectional chart

 
Airport distance calculator
Flying to St Elizabeth Medical Center South Heliport? Find the distance to fly.

From to 32KY

Sunrise and sunset
Times for 30-Mar-2020
 Local
(UTC-4)
 Zulu
(UTC)
Morning civil twilight06:5910:59
Sunrise07:2511:25
Sunset20:0024:00
Evening civil twilight20:2600:26

Current date and time
Zulu (UTC)  30-Mar-2020 20:25:27
Local (UTC-4)  30-Mar-2020 16:25:27
 
METAR
KCVG 
5nm NW 
301952Z 29016G27KT 10SM FEW035 BKN250 16/M01 A3009 RMK AO2 PK WND 28027/1914 SLP187 T01611006
KLUK 
8nm NE 
301953Z 26019G23KT 10SM CLR 16/01 A3010 RMK AO2 PK WND 27028/1929 SLP191 T01610006
KI69 
17nm E 
301956Z AUTO 28018G25KT 10SM CLR 15/00 A3009 RMK AO2 T01510001
KI67 
18nm NW 
301955Z AUTO 28011G18KT 250V310 10SM CLR 15/00 A3010 RMK AO1
TAF
KCVG 
5nm NW 
301733Z 3018/3124 29018G28KT P6SM FEW050 SCT250 FM302200 30014G22KT P6SM SCT060 FM310000 32008KT P6SM SCT060 FM310200 35006KT P6SM SCT060 FM311200 03004KT P6SM BKN045 FM311500 04005KT P6SM OVC025 FM311900 01005KT P6SM OVC035
KLUK 
8nm NE 
301733Z 3018/3118 29016G26KT P6SM FEW050 SCT250 FM302200 30012G20KT P6SM SCT060 FM310000 32006KT P6SM SCT060 FM310200 35004KT P6SM SCT060 FM311200 03004KT P6SM BKN045 FM311500 04005KT P6SM OVC028
NOTAMs
Click for the latest NOTAMs
NOTAMs are issued by the DoD/FAA and will open in a separate window not controlled by AirNav.

 

 
 

Would you like to see your business listed on this page?

 If your business provides an interesting product or service to pilots, flight crews, aircraft, or users of the St Elizabeth Medical Center South Heliport, you should consider listing it here.  To start the listing process, click on the button below
 
Add a business
 

Other Pages about St Elizabeth Medical Center South Heliport

Update a link
 
Copyright © AirNav, LLC. All rights reserved. Privacy Policy  Contact